sensor_id;sensor_type;location;lat;lon;timestamp;P1;durP1;ratioP1;P2;durP2;ratioP2
23434;SDS011;11890;45.380;11.028;2023-11-21T00:00:18;45.78;;;30.45;;
23434;SDS011;11890;45.380;11.028;2023-11-21T00:02:47;48.10;;;30.85;;
23434;SDS011;11890;45.380;11.028;2023-11-21T00:05:15;51.17;;;31.48;;
23434;SDS011;11890;45.380;11.028;2023-11-21T00:07:43;48.70;;;30.08;;
23434;SDS011;11890;45.380;11.028;2023-11-21T00:10:11;46.67;;;30.63;;
23434;SDS011;11890;45.380;11.028;2023-11-21T00:12:41;49.50;;;31.45;;
23434;SDS011;11890;45.380;11.028;2023-11-21T00:15:09;48.15;;;31.48;;
23434;SDS011;11890;45.380;11.028;2023-11-21T00:17:39;45.03;;;29.77;;
23434;SDS011;11890;45.380;11.028;2023-11-21T00:20:07;46.42;;;30.30;;
23434;SDS011;11890;45.380;11.028;2023-11-21T00:22:35;53.70;;;31.30;;
23434;SDS011;11890;45.380;11.028;2023-11-21T00:25:03;47.80;;;32.55;;
23434;SDS011;11890;45.380;11.028;2023-11-21T00:27:31;46.92;;;30.05;;
23434;SDS011;11890;45.380;11.028;2023-11-21T00:29:59;49.80;;;31.42;;
23434;SDS011;11890;45.380;11.028;2023-11-21T00:32:27;52.05;;;32.55;;
23434;SDS011;11890;45.380;11.028;2023-11-21T00:34:55;48.67;;;31.67;;
23434;SDS011;11890;45.380;11.028;2023-11-21T00:37:23;53.05;;;31.67;;
23434;SDS011;11890;45.380;11.028;2023-11-21T00:39:52;49.88;;;32.20;;
23434;SDS011;11890;45.380;11.028;2023-11-21T00:42:19;50.92;;;30.88;;
23434;SDS011;11890;45.380;11.028;2023-11-21T00:44:48;49.95;;;31.20;;
23434;SDS011;11890;45.380;11.028;2023-11-21T00:47:16;50.17;;;31.23;;
23434;SDS011;11890;45.380;11.028;2023-11-21T00:49:44;52.08;;;33.15;;
23434;SDS011;11890;45.380;11.028;2023-11-21T00:52:12;47.80;;;32.03;;
23434;SDS011;11890;45.380;11.028;2023-11-21T00:54:39;48.17;;;31.95;;
23434;SDS011;11890;45.380;11.028;2023-11-21T00:57:07;49.70;;;30.92;;
23434;SDS011;11890;45.380;11.028;2023-11-21T00:59:35;51.72;;;31.60;;
23434;SDS011;11890;45.380;11.028;2023-11-21T01:02:03;50.17;;;31.92;;
23434;SDS011;11890;45.380;11.028;2023-11-21T01:04:32;48.30;;;32.25;;
23434;SDS011;11890;45.380;11.028;2023-11-21T01:07:00;54.03;;;33.28;;
23434;SDS011;11890;45.380;11.028;2023-11-21T01:09:27;49.50;;;31.88;;
23434;SDS011;11890;45.380;11.028;2023-11-21T01:11:56;43.67;;;28.67;;
23434;SDS011;11890;45.380;11.028;2023-11-21T01:14:27;40.55;;;29.70;;
23434;SDS011;11890;45.380;11.028;2023-11-21T01:16:56;45.58;;;30.15;;
23434;SDS011;11890;45.380;11.028;2023-11-21T01:19:24;43.38;;;29.67;;
23434;SDS011;11890;45.380;11.028;2023-11-21T01:21:52;43.80;;;29.42;;
23434;SDS011;11890;45.380;11.028;2023-11-21T01:24:20;42.83;;;28.38;;
23434;SDS011;11890;45.380;11.028;2023-11-21T01:26:48;38.10;;;27.20;;
23434;SDS011;11890;45.380;11.028;2023-11-21T01:29:16;41.03;;;27.70;;
23434;SDS011;11890;45.380;11.028;2023-11-21T01:31:44;44.10;;;26.88;;
23434;SDS011;11890;45.380;11.028;2023-11-21T01:34:12;40.25;;;27.55;;
23434;SDS011;11890;45.380;11.028;2023-11-21T01:36:41;45.30;;;27.70;;
23434;SDS011;11890;45.380;11.028;2023-11-21T01:39:09;41.58;;;27.05;;
23434;SDS011;11890;45.380;11.028;2023-11-21T01:41:42;39.13;;;26.27;;
23434;SDS011;11890;45.380;11.028;2023-11-21T01:44:11;43.17;;;27.75;;
23434;SDS011;11890;45.380;11.028;2023-11-21T01:46:40;38.05;;;25.60;;
23434;SDS011;11890;45.380;11.028;2023-11-21T01:49:09;37.13;;;25.35;;
23434;SDS011;11890;45.380;11.028;2023-11-21T01:51:42;40.80;;;27.60;;
23434;SDS011;11890;45.380;11.028;2023-11-21T01:54:10;37.72;;;25.42;;
23434;SDS011;11890;45.380;11.028;2023-11-21T01:56:47;41.75;;;25.88;;
23434;SDS011;11890;45.380;11.028;2023-11-21T01:59:16;42.88;;;25.95;;
23434;SDS011;11890;45.380;11.028;2023-11-21T02:01:45;44.05;;;26.30;;
23434;SDS011;11890;45.380;11.028;2023-11-21T02:04:13;40.17;;;26.42;;
23434;SDS011;11890;45.380;11.028;2023-11-21T02:06:42;39.72;;;26.05;;
23434;SDS011;11890;45.380;11.028;2023-11-21T02:09:11;42.03;;;25.88;;
23434;SDS011;11890;45.380;11.028;2023-11-21T02:11:42;39.80;;;26.95;;
23434;SDS011;11890;45.380;11.028;2023-11-21T02:14:10;39.67;;;26.80;;
23434;SDS011;11890;45.380;11.028;2023-11-21T02:16:40;38.10;;;26.10;;
23434;SDS011;11890;45.380;11.028;2023-11-21T02:19:14;39.58;;;25.70;;
23434;SDS011;11890;45.380;11.028;2023-11-21T02:21:46;39.95;;;26.33;;
23434;SDS011;11890;45.380;11.028;2023-11-21T02:24:22;40.72;;;25.13;;
23434;SDS011;11890;45.380;11.028;2023-11-21T02:26:50;36.40;;;25.38;;
23434;SDS011;11890;45.380;11.028;2023-11-21T02:29:21;39.47;;;26.05;;
23434;SDS011;11890;45.380;11.028;2023-11-21T02:31:54;39.10;;;25.73;;
23434;SDS011;11890;45.380;11.028;2023-11-21T02:34:23;39.08;;;25.52;;
23434;SDS011;11890;45.380;11.028;2023-11-21T02:36:52;44.60;;;26.42;;
23434;SDS011;11890;45.380;11.028;2023-11-21T02:39:21;40.45;;;26.48;;
23434;SDS011;11890;45.380;11.028;2023-11-21T02:41:49;39.25;;;26.58;;
23434;SDS011;11890;45.380;11.028;2023-11-21T02:44:17;38.55;;;26.02;;
23434;SDS011;11890;45.380;11.028;2023-11-21T02:46:45;36.92;;;25.40;;
23434;SDS011;11890;45.380;11.028;2023-11-21T02:49:14;34.80;;;24.80;;
23434;SDS011;11890;45.380;11.028;2023-11-21T02:51:42;40.25;;;25.33;;
23434;SDS011;11890;45.380;11.028;2023-11-21T02:54:10;34.05;;;24.55;;
23434;SDS011;11890;45.380;11.028;2023-11-21T02:56:38;37.42;;;25.55;;
23434;SDS011;11890;45.380;11.028;2023-11-21T02:59:07;38.28;;;24.25;;
23434;SDS011;11890;45.380;11.028;2023-11-21T03:01:34;37.67;;;24.13;;
23434;SDS011;11890;45.380;11.028;2023-11-21T03:04:03;36.08;;;23.98;;
23434;SDS011;11890;45.380;11.028;2023-11-21T03:06:33;34.90;;;23.65;;
23434;SDS011;11890;45.380;11.028;2023-11-21T03:09:00;36.97;;;25.00;;
23434;SDS011;11890;45.380;11.028;2023-11-21T03:11:28;33.65;;;23.42;;
23434;SDS011;11890;45.380;11.028;2023-11-21T03:13:56;37.83;;;24.90;;
23434;SDS011;11890;45.380;11.028;2023-11-21T03:16:24;34.45;;;24.42;;
23434;SDS011;11890;45.380;11.028;2023-11-21T03:18:52;34.63;;;23.67;;
23434;SDS011;11890;45.380;11.028;2023-11-21T03:21:20;34.90;;;24.17;;
23434;SDS011;11890;45.380;11.028;2023-11-21T03:23:48;35.35;;;24.17;;
23434;SDS011;11890;45.380;11.028;2023-11-21T03:26:17;33.42;;;23.13;;
23434;SDS011;11890;45.380;11.028;2023-11-21T03:28:44;31.40;;;21.88;;
23434;SDS011;11890;45.380;11.028;2023-11-21T03:31:13;33.90;;;22.83;;
23434;SDS011;11890;45.380;11.028;2023-11-21T03:33:43;30.13;;;22.85;;
23434;SDS011;11890;45.380;11.028;2023-11-21T03:36:12;34.65;;;22.05;;
23434;SDS011;11890;45.380;11.028;2023-11-21T03:38:41;30.83;;;22.25;;
23434;SDS011;11890;45.380;11.028;2023-11-21T03:41:09;32.85;;;21.50;;
23434;SDS011;11890;45.380;11.028;2023-11-21T03:43:37;28.35;;;20.45;;
23434;SDS011;11890;45.380;11.028;2023-11-21T03:46:05;31.02;;;22.38;;
23434;SDS011;11890;45.380;11.028;2023-11-21T03:48:36;29.02;;;20.65;;
23434;SDS011;11890;45.380;11.028;2023-11-21T03:51:04;31.60;;;20.23;;
23434;SDS011;11890;45.380;11.028;2023-11-21T03:53:33;27.13;;;19.52;;
23434;SDS011;11890;45.380;11.028;2023-11-21T03:56:02;30.02;;;20.42;;
23434;SDS011;11890;45.380;11.028;2023-11-21T03:58:32;29.77;;;19.27;;
23434;SDS011;11890;45.380;11.028;2023-11-21T04:01:01;27.20;;;20.75;;
23434;SDS011;11890;45.380;11.028;2023-11-21T04:03:28;27.67;;;19.50;;
23434;SDS011;11890;45.380;11.028;2023-11-21T04:05:57;26.75;;;19.58;;
23434;SDS011;11890;45.380;11.028;2023-11-21T04:08:24;30.05;;;19.40;;
23434;SDS011;11890;45.380;11.028;2023-11-21T04:10:52;27.45;;;19.10;;
23434;SDS011;11890;45.380;11.028;2023-11-21T04:13:21;29.13;;;20.15;;
23434;SDS011;11890;45.380;11.028;2023-11-21T04:15:49;26.70;;;19.48;;
23434;SDS011;11890;45.380;11.028;2023-11-21T04:18:17;30.52;;;20.25;;
23434;SDS011;11890;45.380;11.028;2023-11-21T04:20:45;27.85;;;19.85;;
23434;SDS011;11890;45.380;11.028;2023-11-21T04:23:13;26.27;;;19.05;;
23434;SDS011;11890;45.380;11.028;2023-11-21T04:25:41;27.65;;;19.52;;
23434;SDS011;11890;45.380;11.028;2023-11-21T04:28:10;25.35;;;18.70;;
23434;SDS011;11890;45.380;11.028;2023-11-21T04:30:38;28.85;;;18.98;;
23434;SDS011;11890;45.380;11.028;2023-11-21T04:33:06;27.50;;;19.75;;
23434;SDS011;11890;45.380;11.028;2023-11-21T04:35:34;24.65;;;18.88;;
23434;SDS011;11890;45.380;11.028;2023-11-21T04:38:02;27.15;;;19.35;;
23434;SDS011;11890;45.380;11.028;2023-11-21T04:40:30;27.50;;;19.77;;
23434;SDS011;11890;45.380;11.028;2023-11-21T04:42:58;28.50;;;20.08;;
23434;SDS011;11890;45.380;11.028;2023-11-21T04:45:26;30.27;;;20.38;;
23434;SDS011;11890;45.380;11.028;2023-11-21T04:47:54;31.58;;;21.08;;
23434;SDS011;11890;45.380;11.028;2023-11-21T04:50:21;28.92;;;20.75;;
23434;SDS011;11890;45.380;11.028;2023-11-21T04:52:49;29.20;;;22.08;;
23434;SDS011;11890;45.380;11.028;2023-11-21T04:55:17;30.10;;;21.00;;
23434;SDS011;11890;45.380;11.028;2023-11-21T04:57:46;28.25;;;20.42;;
23434;SDS011;11890;45.380;11.028;2023-11-21T05:00:14;28.70;;;19.70;;
23434;SDS011;11890;45.380;11.028;2023-11-21T05:02:43;28.33;;;19.33;;
23434;SDS011;11890;45.380;11.028;2023-11-21T05:05:11;27.55;;;19.77;;
23434;SDS011;11890;45.380;11.028;2023-11-21T05:07:39;30.38;;;20.25;;
23434;SDS011;11890;45.380;11.028;2023-11-21T05:10:08;30.70;;;19.45;;
23434;SDS011;11890;45.380;11.028;2023-11-21T05:12:39;31.25;;;19.38;;
23434;SDS011;11890;45.380;11.028;2023-11-21T05:15:08;30.77;;;19.98;;
23434;SDS011;11890;45.380;11.028;2023-11-21T05:17:39;28.80;;;19.75;;
23434;SDS011;11890;45.380;11.028;2023-11-21T05:20:27;27.58;;;19.83;;
23434;SDS011;11890;45.380;11.028;2023-11-21T05:22:55;27.25;;;19.08;;
23434;SDS011;11890;45.380;11.028;2023-11-21T05:25:23;30.80;;;19.70;;
23434;SDS011;11890;45.380;11.028;2023-11-21T05:27:51;26.02;;;18.92;;
23434;SDS011;11890;45.380;11.028;2023-11-21T05:30:20;30.48;;;20.23;;
23434;SDS011;11890;45.380;11.028;2023-11-21T05:32:48;31.50;;;20.27;;
23434;SDS011;11890;45.380;11.028;2023-11-21T05:35:16;31.02;;;19.88;;
23434;SDS011;11890;45.380;11.028;2023-11-21T05:37:45;25.80;;;19.20;;
23434;SDS011;11890;45.380;11.028;2023-11-21T05:40:13;28.77;;;19.63;;
23434;SDS011;11890;45.380;11.028;2023-11-21T05:42:41;26.38;;;17.42;;
23434;SDS011;11890;45.380;11.028;2023-11-21T05:45:09;30.30;;;18.23;;
23434;SDS011;11890;45.380;11.028;2023-11-21T05:47:40;31.33;;;19.48;;
23434;SDS011;11890;45.380;11.028;2023-11-21T05:50:08;37.40;;;18.25;;
23434;SDS011;11890;45.380;11.028;2023-11-21T05:52:42;24.88;;;17.90;;
23434;SDS011;11890;45.380;11.028;2023-11-21T05:55:14;25.88;;;18.83;;
23434;SDS011;11890;45.380;11.028;2023-11-21T05:57:43;27.10;;;19.30;;
23434;SDS011;11890;45.380;11.028;2023-11-21T06:00:13;29.98;;;20.40;;
23434;SDS011;11890;45.380;11.028;2023-11-21T06:02:54;28.17;;;19.40;;
23434;SDS011;11890;45.380;11.028;2023-11-21T06:05:23;31.25;;;19.90;;
23434;SDS011;11890;45.380;11.028;2023-11-21T06:07:53;31.10;;;19.80;;
23434;SDS011;11890;45.380;11.028;2023-11-21T06:10:23;32.70;;;21.30;;
23434;SDS011;11890;45.380;11.028;2023-11-21T06:12:52;31.52;;;19.95;;
23434;SDS011;11890;45.380;11.028;2023-11-21T06:23:14;33.03;;;21.67;;
23434;SDS011;11890;45.380;11.028;2023-11-21T06:25:43;31.40;;;20.75;;
23434;SDS011;11890;45.380;11.028;2023-11-21T06:28:11;35.45;;;20.25;;
23434;SDS011;11890;45.380;11.028;2023-11-21T06:30:42;34.67;;;20.75;;
23434;SDS011;11890;45.380;11.028;2023-11-21T06:33:23;29.00;;;20.30;;
23434;SDS011;11890;45.380;11.028;2023-11-21T06:35:52;31.42;;;21.23;;
23434;SDS011;11890;45.380;11.028;2023-11-21T06:38:38;30.40;;;19.73;;
23434;SDS011;11890;45.380;11.028;2023-11-21T06:41:05;29.05;;;19.95;;
23434;SDS011;11890;45.380;11.028;2023-11-21T06:43:34;41.55;;;24.10;;
23434;SDS011;11890;45.380;11.028;2023-11-21T06:46:03;28.30;;;20.33;;
23434;SDS011;11890;45.380;11.028;2023-11-21T06:48:31;41.63;;;20.50;;
23434;SDS011;11890;45.380;11.028;2023-11-21T06:50:59;28.83;;;20.15;;
23434;SDS011;11890;45.380;11.028;2023-11-21T06:53:26;26.67;;;20.60;;
23434;SDS011;11890;45.380;11.028;2023-11-21T06:55:54;31.75;;;22.33;;
23434;SDS011;11890;45.380;11.028;2023-11-21T06:58:22;37.88;;;22.75;;
23434;SDS011;11890;45.380;11.028;2023-11-21T07:00:50;41.08;;;23.27;;
23434;SDS011;11890;45.380;11.028;2023-11-21T07:03:22;32.08;;;21.92;;
23434;SDS011;11890;45.380;11.028;2023-11-21T07:05:50;38.92;;;21.55;;
23434;SDS011;11890;45.380;11.028;2023-11-21T07:08:18;40.60;;;24.40;;
23434;SDS011;11890;45.380;11.028;2023-11-21T07:10:46;35.55;;;25.40;;
23434;SDS011;11890;45.380;11.028;2023-11-21T07:13:14;28.90;;;20.70;;
23434;SDS011;11890;45.380;11.028;2023-11-21T07:15:41;31.10;;;21.50;;
23434;SDS011;11890;45.380;11.028;2023-11-21T07:18:10;35.58;;;20.25;;
23434;SDS011;11890;45.380;11.028;2023-11-21T07:20:38;40.72;;;19.98;;
23434;SDS011;11890;45.380;11.028;2023-11-21T07:23:06;29.40;;;20.48;;
23434;SDS011;11890;45.380;11.028;2023-11-21T07:25:34;32.15;;;21.00;;
23434;SDS011;11890;45.380;11.028;2023-11-21T07:28:01;30.73;;;20.15;;
23434;SDS011;11890;45.380;11.028;2023-11-21T07:30:29;34.10;;;22.10;;
23434;SDS011;11890;45.380;11.028;2023-11-21T07:32:57;28.00;;;19.73;;
23434;SDS011;11890;45.380;11.028;2023-11-21T07:35:25;35.00;;;20.80;;
23434;SDS011;11890;45.380;11.028;2023-11-21T07:37:53;34.03;;;19.85;;
23434;SDS011;11890;45.380;11.028;2023-11-21T07:40:21;33.83;;;19.75;;
23434;SDS011;11890;45.380;11.028;2023-11-21T07:42:49;40.72;;;20.85;;
23434;SDS011;11890;45.380;11.028;2023-11-21T07:45:17;50.83;;;22.40;;
23434;SDS011;11890;45.380;11.028;2023-11-21T07:47:45;31.42;;;20.58;;
23434;SDS011;11890;45.380;11.028;2023-11-21T07:50:13;31.75;;;21.20;;
23434;SDS011;11890;45.380;11.028;2023-11-21T07:52:41;28.65;;;20.58;;
23434;SDS011;11890;45.380;11.028;2023-11-21T07:55:09;30.70;;;20.90;;
23434;SDS011;11890;45.380;11.028;2023-11-21T07:57:36;28.17;;;20.25;;
23434;SDS011;11890;45.380;11.028;2023-11-21T08:00:05;30.85;;;18.70;;
23434;SDS011;11890;45.380;11.028;2023-11-21T08:02:39;33.60;;;20.55;;
23434;SDS011;11890;45.380;11.028;2023-11-21T08:05:13;28.30;;;19.00;;
23434;SDS011;11890;45.380;11.028;2023-11-21T08:07:51;30.25;;;18.95;;
23434;SDS011;11890;45.380;11.028;2023-11-21T08:10:18;32.47;;;18.92;;
23434;SDS011;11890;45.380;11.028;2023-11-21T08:12:48;28.42;;;18.83;;
23434;SDS011;11890;45.380;11.028;2023-11-21T08:15:17;28.35;;;18.50;;
23434;SDS011;11890;45.380;11.028;2023-11-21T08:17:45;28.88;;;18.77;;
23434;SDS011;11890;45.380;11.028;2023-11-21T08:20:13;30.00;;;19.05;;
23434;SDS011;11890;45.380;11.028;2023-11-21T08:22:45;35.95;;;19.10;;
23434;SDS011;11890;45.380;11.028;2023-11-21T08:25:14;34.45;;;17.70;;
23434;SDS011;11890;45.380;11.028;2023-11-21T08:27:46;28.45;;;17.60;;
23434;SDS011;11890;45.380;11.028;2023-11-21T08:30:14;28.10;;;18.55;;
23434;SDS011;11890;45.380;11.028;2023-11-21T08:32:43;31.88;;;19.15;;
23434;SDS011;11890;45.380;11.028;2023-11-21T08:35:11;30.75;;;18.80;;
23434;SDS011;11890;45.380;11.028;2023-11-21T08:37:39;29.13;;;19.02;;
23434;SDS011;11890;45.380;11.028;2023-11-21T08:40:07;24.30;;;18.30;;
23434;SDS011;11890;45.380;11.028;2023-11-21T08:42:36;28.77;;;19.20;;
23434;SDS011;11890;45.380;11.028;2023-11-21T08:45:04;35.00;;;19.63;;
23434;SDS011;11890;45.380;11.028;2023-11-21T08:47:32;31.83;;;18.25;;
23434;SDS011;11890;45.380;11.028;2023-11-21T08:50:01;32.80;;;19.85;;
23434;SDS011;11890;45.380;11.028;2023-11-21T08:52:29;31.23;;;19.17;;
23434;SDS011;11890;45.380;11.028;2023-11-21T08:54:56;32.92;;;20.00;;
23434;SDS011;11890;45.380;11.028;2023-11-21T08:57:30;103.22;;;26.92;;
23434;SDS011;11890;45.380;11.028;2023-11-21T08:59:58;134.02;;;29.67;;
23434;SDS011;11890;45.380;11.028;2023-11-21T09:02:26;55.38;;;22.50;;
23434;SDS011;11890;45.380;11.028;2023-11-21T09:04:54;44.60;;;19.98;;
23434;SDS011;11890;45.380;11.028;2023-11-21T09:07:21;34.53;;;18.92;;
23434;SDS011;11890;45.380;11.028;2023-11-21T09:09:49;27.75;;;18.15;;
23434;SDS011;11890;45.380;11.028;2023-11-21T09:12:17;29.73;;;19.77;;
23434;SDS011;11890;45.380;11.028;2023-11-21T09:14:46;29.23;;;18.63;;
23434;SDS011;11890;45.380;11.028;2023-11-21T09:17:14;26.17;;;17.63;;
23434;SDS011;11890;45.380;11.028;2023-11-21T09:19:42;25.35;;;17.67;;
23434;SDS011;11890;45.380;11.028;2023-11-21T09:22:17;29.13;;;17.85;;
23434;SDS011;11890;45.380;11.028;2023-11-21T09:24:45;27.33;;;17.23;;
23434;SDS011;11890;45.380;11.028;2023-11-21T09:27:12;82.13;;;24.77;;
23434;SDS011;11890;45.380;11.028;2023-11-21T09:29:42;40.92;;;18.58;;
23434;SDS011;11890;45.380;11.028;2023-11-21T09:32:09;32.22;;;17.75;;
23434;SDS011;11890;45.380;11.028;2023-11-21T09:34:38;26.83;;;17.23;;
23434;SDS011;11890;45.380;11.028;2023-11-21T09:37:06;27.23;;;16.42;;
23434;SDS011;11890;45.380;11.028;2023-11-21T09:39:34;30.85;;;17.23;;
23434;SDS011;11890;45.380;11.028;2023-11-21T09:42:10;23.02;;;15.60;;
23434;SDS011;11890;45.380;11.028;2023-11-21T09:47:26;25.80;;;16.92;;
23434;SDS011;11890;45.380;11.028;2023-11-21T09:49:54;26.25;;;16.88;;
23434;SDS011;11890;45.380;11.028;2023-11-21T09:52:24;25.55;;;17.08;;
23434;SDS011;11890;45.380;11.028;2023-11-21T09:54:53;27.88;;;17.77;;
23434;SDS011;11890;45.380;11.028;2023-11-21T09:57:24;24.77;;;16.63;;
23434;SDS011;11890;45.380;11.028;2023-11-21T09:59:52;22.25;;;16.67;;
23434;SDS011;11890;45.380;11.028;2023-11-21T10:02:27;32.53;;;17.23;;
23434;SDS011;11890;45.380;11.028;2023-11-21T10:04:59;34.03;;;20.95;;
23434;SDS011;11890;45.380;11.028;2023-11-21T10:07:27;32.22;;;20.42;;
23434;SDS011;11890;45.380;11.028;2023-11-21T10:09:56;30.60;;;19.73;;
23434;SDS011;11890;45.380;11.028;2023-11-21T10:12:24;32.55;;;19.90;;
23434;SDS011;11890;45.380;11.028;2023-11-21T10:14:53;32.92;;;21.13;;
23434;SDS011;11890;45.380;11.028;2023-11-21T10:17:22;35.15;;;21.95;;
23434;SDS011;11890;45.380;11.028;2023-11-21T10:19:53;29.85;;;21.98;;
23434;SDS011;11890;45.380;11.028;2023-11-21T10:22:22;37.55;;;23.25;;
23434;SDS011;11890;45.380;11.028;2023-11-21T10:24:53;35.17;;;21.98;;
23434;SDS011;11890;45.380;11.028;2023-11-21T10:27:20;32.83;;;22.65;;
23434;SDS011;11890;45.380;11.028;2023-11-21T10:29:51;37.67;;;23.92;;
23434;SDS011;11890;45.380;11.028;2023-11-21T10:32:18;36.33;;;22.58;;
23434;SDS011;11890;45.380;11.028;2023-11-21T10:34:56;38.38;;;24.00;;
23434;SDS011;11890;45.380;11.028;2023-11-21T10:37:24;35.47;;;22.90;;
23434;SDS011;11890;45.380;11.028;2023-11-21T10:39:57;37.25;;;24.85;;
23434;SDS011;11890;45.380;11.028;2023-11-21T10:42:25;37.35;;;22.67;;
23434;SDS011;11890;45.380;11.028;2023-11-21T10:44:54;33.28;;;22.63;;
23434;SDS011;11890;45.380;11.028;2023-11-21T10:47:23;31.63;;;22.15;;
23434;SDS011;11890;45.380;11.028;2023-11-21T10:49:51;35.78;;;22.77;;
23434;SDS011;11890;45.380;11.028;2023-11-21T10:52:22;32.90;;;22.67;;
23434;SDS011;11890;45.380;11.028;2023-11-21T10:54:54;36.55;;;24.20;;
23434;SDS011;11890;45.380;11.028;2023-11-21T10:57:22;38.08;;;22.85;;
23434;SDS011;11890;45.380;11.028;2023-11-21T10:59:50;35.13;;;22.40;;
23434;SDS011;11890;45.380;11.028;2023-11-21T11:02:21;33.90;;;23.42;;
23434;SDS011;11890;45.380;11.028;2023-11-21T11:04:52;36.03;;;23.90;;
23434;SDS011;11890;45.380;11.028;2023-11-21T11:07:21;40.50;;;23.65;;
23434;SDS011;11890;45.380;11.028;2023-11-21T11:09:49;37.25;;;23.40;;
23434;SDS011;11890;45.380;11.028;2023-11-21T11:12:17;38.30;;;23.75;;
23434;SDS011;11890;45.380;11.028;2023-11-21T11:14:46;74.63;;;50.00;;
23434;SDS011;11890;45.380;11.028;2023-11-21T11:17:14;113.85;;;72.10;;
23434;SDS011;11890;45.380;11.028;2023-11-21T11:19:43;106.68;;;64.68;;
23434;SDS011;11890;45.380;11.028;2023-11-21T11:28:03;38.92;;;24.80;;
23434;SDS011;11890;45.380;11.028;2023-11-21T11:30:37;36.83;;;24.30;;
23434;SDS011;11890;45.380;11.028;2023-11-21T11:33:20;36.50;;;24.55;;
23434;SDS011;11890;45.380;11.028;2023-11-21T11:38:23;56.75;;;34.45;;
23434;SDS011;11890;45.380;11.028;2023-11-21T11:40:54;57.50;;;36.47;;
23434;SDS011;11890;45.380;11.028;2023-11-21T11:43:24;46.67;;;31.30;;
23434;SDS011;11890;45.380;11.028;2023-11-21T11:45:55;45.90;;;32.05;;
23434;SDS011;11890;45.380;11.028;2023-11-21T11:48:23;92.65;;;56.03;;
23434;SDS011;11890;45.380;11.028;2023-11-21T11:51:00;48.80;;;29.15;;
23434;SDS011;11890;45.380;11.028;2023-11-21T11:53:35;41.50;;;27.45;;
23434;SDS011;11890;45.380;11.028;2023-11-21T11:56:18;40.03;;;26.27;;
23434;SDS011;11890;45.380;11.028;2023-11-21T11:58:50;39.75;;;26.83;;
23434;SDS011;11890;45.380;11.028;2023-11-21T12:01:18;45.92;;;32.08;;
23434;SDS011;11890;45.380;11.028;2023-11-21T12:06:33;61.38;;;37.97;;
23434;SDS011;11890;45.380;11.028;2023-11-21T12:09:02;44.20;;;28.88;;
23434;SDS011;11890;45.380;11.028;2023-11-21T12:11:32;41.65;;;27.85;;
23434;SDS011;11890;45.380;11.028;2023-11-21T12:14:02;52.03;;;34.30;;
23434;SDS011;11890;45.380;11.028;2023-11-21T12:16:32;62.63;;;38.95;;
23434;SDS011;11890;45.380;11.028;2023-11-21T12:19:00;52.08;;;32.47;;
23434;SDS011;11890;45.380;11.028;2023-11-21T12:21:28;46.30;;;29.92;;
23434;SDS011;11890;45.380;11.028;2023-11-21T12:23:56;45.38;;;28.70;;
23434;SDS011;11890;45.380;11.028;2023-11-21T12:26:24;43.33;;;28.65;;
23434;SDS011;11890;45.380;11.028;2023-11-21T12:28:52;37.53;;;27.50;;
23434;SDS011;11890;45.380;11.028;2023-11-21T12:31:23;46.85;;;26.80;;
23434;SDS011;11890;45.380;11.028;2023-11-21T12:33:53;37.25;;;25.92;;
23434;SDS011;11890;45.380;11.028;2023-11-21T12:36:22;38.00;;;24.63;;
23434;SDS011;11890;45.380;11.028;2023-11-21T12:38:50;34.63;;;25.75;;
23434;SDS011;11890;45.380;11.028;2023-11-21T12:41:18;39.55;;;26.02;;
23434;SDS011;11890;45.380;11.028;2023-11-21T12:43:46;38.95;;;24.08;;
23434;SDS011;11890;45.380;11.028;2023-11-21T12:46:14;36.85;;;23.55;;
23434;SDS011;11890;45.380;11.028;2023-11-21T12:48:44;33.60;;;22.30;;
23434;SDS011;11890;45.380;11.028;2023-11-21T12:51:12;33.25;;;22.52;;
23434;SDS011;11890;45.380;11.028;2023-11-21T12:53:43;35.38;;;21.15;;
23434;SDS011;11890;45.380;11.028;2023-11-21T12:56:11;28.92;;;20.15;;
23434;SDS011;11890;45.380;11.028;2023-11-21T12:58:39;32.45;;;19.50;;
23434;SDS011;11890;45.380;11.028;2023-11-21T13:01:08;28.65;;;17.58;;
23434;SDS011;11890;45.380;11.028;2023-11-21T13:03:39;26.80;;;15.98;;
23434;SDS011;11890;45.380;11.028;2023-11-21T13:06:07;25.85;;;16.98;;
23434;SDS011;11890;45.380;11.028;2023-11-21T13:08:35;23.02;;;15.15;;
23434;SDS011;11890;45.380;11.028;2023-11-21T13:11:05;27.40;;;16.60;;
23434;SDS011;11890;45.380;11.028;2023-11-21T13:13:33;20.58;;;15.13;;
23434;SDS011;11890;45.380;11.028;2023-11-21T13:16:02;23.50;;;15.88;;
23434;SDS011;11890;45.380;11.028;2023-11-21T13:18:33;26.50;;;15.10;;
23434;SDS011;11890;45.380;11.028;2023-11-21T13:21:01;22.13;;;15.02;;
23434;SDS011;11890;45.380;11.028;2023-11-21T13:23:38;19.67;;;13.93;;
23434;SDS011;11890;45.380;11.028;2023-11-21T13:26:07;22.73;;;14.32;;
23434;SDS011;11890;45.380;11.028;2023-11-21T13:28:39;29.92;;;16.17;;
23434;SDS011;11890;45.380;11.028;2023-11-21T13:31:12;24.60;;;14.60;;
23434;SDS011;11890;45.380;11.028;2023-11-21T13:33:58;21.80;;;14.48;;
23434;SDS011;11890;45.380;11.028;2023-11-21T13:36:31;21.70;;;13.93;;
23434;SDS011;11890;45.380;11.028;2023-11-21T13:39:02;23.35;;;13.60;;
23434;SDS011;11890;45.380;11.028;2023-11-21T13:41:42;19.45;;;13.65;;
23434;SDS011;11890;45.380;11.028;2023-11-21T13:44:10;23.38;;;13.63;;
23434;SDS011;11890;45.380;11.028;2023-11-21T13:46:44;20.55;;;12.65;;
23434;SDS011;11890;45.380;11.028;2023-11-21T13:49:13;23.33;;;13.75;;
23434;SDS011;11890;45.380;11.028;2023-11-21T13:51:42;19.08;;;13.45;;
23434;SDS011;11890;45.380;11.028;2023-11-21T13:54:12;18.17;;;12.15;;
23434;SDS011;11890;45.380;11.028;2023-11-21T13:56:41;20.05;;;12.75;;
23434;SDS011;11890;45.380;11.028;2023-11-21T13:59:12;14.25;;;10.52;;
23434;SDS011;11890;45.380;11.028;2023-11-21T14:01:52;22.38;;;11.65;;
23434;SDS011;11890;45.380;11.028;2023-11-21T14:04:22;19.13;;;11.27;;
23434;SDS011;11890;45.380;11.028;2023-11-21T14:06:56;14.75;;;8.85;;
23434;SDS011;11890;45.380;11.028;2023-11-21T14:09:27;10.43;;;7.38;;
23434;SDS011;11890;45.380;11.028;2023-11-21T14:12:10;9.32;;;6.53;;
23434;SDS011;11890;45.380;11.028;2023-11-21T14:14:41;9.68;;;5.70;;
23434;SDS011;11890;45.380;11.028;2023-11-21T14:17:10;8.55;;;4.57;;
23434;SDS011;11890;45.380;11.028;2023-11-21T14:19:38;6.82;;;3.80;;
23434;SDS011;11890;45.380;11.028;2023-11-21T14:22:11;5.47;;;3.22;;
23434;SDS011;11890;45.380;11.028;2023-11-21T14:24:39;4.22;;;2.78;;
23434;SDS011;11890;45.380;11.028;2023-11-21T14:27:14;3.63;;;2.50;;
23434;SDS011;11890;45.380;11.028;2023-11-21T14:29:42;3.67;;;2.78;;
23434;SDS011;11890;45.380;11.028;2023-11-21T14:32:10;5.75;;;2.53;;
23434;SDS011;11890;45.380;11.028;2023-11-21T14:34:38;4.20;;;2.65;;
23434;SDS011;11890;45.380;11.028;2023-11-21T14:37:07;6.53;;;2.30;;
23434;SDS011;11890;45.380;11.028;2023-11-21T14:39:35;4.38;;;3.00;;
23434;SDS011;11890;45.380;11.028;2023-11-21T14:42:09;5.10;;;2.80;;
23434;SDS011;11890;45.380;11.028;2023-11-21T14:44:37;4.70;;;3.00;;